Time;durP1;ratioP1;P1;durP2;ratioP2;P2;SDS_P1;SDS_P2;PMS_P1;PMS_P2;Temp;Humidity;BMP_temperature;BMP_pressure;BME280_temperature;BME280_humidity;BME280_pressure;Samples;Min_cycle;Max_cycle;Signal;HPM_P1;HPM_P2
2024/01/25 00:00:11;;;;;;;;;;;;;;;-17.51;41.84;96849.72;6270601;28;19944;-67
2024/01/25 00:03:15;;;;;;;;;;;;;;;-17.48;41.80;96849.84;6270486;28;19928;-66
2024/01/25 00:06:15;;;;;;;;;;;;;;;-17.45;42.03;96849.97;6270976;28;19924;-66
2024/01/25 00:09:16;;;;;;;;;;;;;;;-17.41;42.12;96851.81;6252781;28;19955;-67
2024/01/25 00:12:20;;;;;;;;;;;;;;;-17.36;42.14;96842.81;6269897;28;19920;-66
2024/01/25 00:15:21;;;;;;;;;;;;;;;-17.30;41.96;96840.53;6270596;28;19920;-67
2024/01/25 00:18:22;;;;;;;;;;;;;;;-17.21;42.07;96846.00;6257313;28;20338;-67
2024/01/25 00:21:23;;;;;;;;;;;;;;;-17.14;41.60;96846.22;6245422;28;20307;-66
2024/01/25 00:24:26;;;;;;;;;;;;;;;-17.12;41.49;96849.66;6246240;28;19932;-66
2024/01/25 00:27:29;;;;;;;;;;;;;;;-17.12;41.67;96845.50;6245274;28;20146;-66
2024/01/25 00:30:30;;;;;;;;;;;;;;;-17.08;41.54;96846.47;6245678;28;19928;-67
2024/01/25 00:33:31;;;;;;;;;;;;;;;-17.05;42.08;96842.44;6245004;28;20272;-67
2024/01/25 00:36:39;;;;;;;;;;;;;;;-16.97;42.16;96840.22;6245708;28;20314;-67
2024/01/25 00:39:41;;;;;;;;;;;;;;;-16.86;41.85;96836.50;6245380;28;19928;-67
2024/01/25 00:42:53;;;;;;;;;;;;;;;-16.76;41.65;96841.03;6245359;28;19920;-67
2024/01/25 00:45:56;;;;;;;;;;;;;;;-16.64;41.72;96834.78;6245520;28;19921;-66
2024/01/25 00:49:00;;;;;;;;;;;;;;;-16.54;41.56;96831.81;6245341;28;20342;-67
2024/01/25 00:52:02;;;;;;;;;;;;;;;-16.47;41.58;96833.78;6244343;28;19921;-67
2024/01/25 00:55:03;;;;;;;;;;;;;;;-16.40;41.83;96824.81;6245518;28;19921;-67
2024/01/25 00:58:04;;;;;;;;;;;;;;;-16.36;41.58;96825.00;6244967;28;19963;-67
2024/01/25 01:01:06;;;;;;;;;;;;;;;-16.35;41.76;96825.84;6244887;28;19928;-66
2024/01/25 01:04:10;;;;;;;;;;;;;;;-16.40;41.79;96830.69;6245088;28;20563;-66
2024/01/25 01:07:11;;;;;;;;;;;;;;;-16.47;42.47;96833.78;6244976;28;19925;-67
2024/01/25 01:10:14;;;;;;;;;;;;;;;-16.54;42.04;96825.13;6244210;28;20354;-67
2024/01/25 01:13:15;;;;;;;;;;;;;;;-16.59;41.91;96819.03;6243891;28;20306;-66
2024/01/25 01:16:16;;;;;;;;;;;;;;;-16.64;42.07;96822.19;6244961;28;19921;-66
2024/01/25 01:19:21;;;;;;;;;;;;;;;-16.70;42.14;96819.44;6264967;28;19921;-67
2024/01/25 01:22:25;;;;;;;;;;;;;;;-16.74;42.65;96818.47;6269490;28;19920;-67
2024/01/25 01:25:26;;;;;;;;;;;;;;;-16.74;42.35;96828.53;6268113;28;19931;-67
2024/01/25 01:28:27;;;;;;;;;;;;;;;-16.73;42.59;96817.66;6268559;28;19920;-66
2024/01/25 01:31:30;;;;;;;;;;;;;;;-16.71;42.36;96822.75;6269238;28;20246;-67
2024/01/25 01:34:31;;;;;;;;;;;;;;;-16.71;42.95;96817.72;6268906;28;19920;-66
2024/01/25 01:37:35;;;;;;;;;;;;;;;-16.71;42.62;96813.53;6269166;28;20412;-66
2024/01/25 01:40:37;;;;;;;;;;;;;;;-16.69;42.19;96801.03;6268496;28;19921;-67
2024/01/25 01:43:38;;;;;;;;;;;;;;;-16.68;42.60;96805.25;6268396;28;19927;-67
2024/01/25 01:46:42;;;;;;;;;;;;;;;-16.68;42.83;96802.75;6250965;28;19921;-68
2024/01/25 01:49:43;;;;;;;;;;;;;;;-16.69;42.73;96801.88;6268152;28;19920;-66
2024/01/25 01:52:47;;;;;;;;;;;;;;;-16.75;42.73;96800.00;6269295;28;20332;-67
2024/01/25 01:55:48;;;;;;;;;;;;;;;-16.82;43.04;96805.59;6268463;28;19921;-67
2024/01/25 01:58:52;;;;;;;;;;;;;;;-16.88;43.13;96804.50;6268880;28;19921;-67
2024/01/25 02:01:56;;;;;;;;;;;;;;;-16.96;43.81;96801.69;6268266;28;19921;-67
2024/01/25 02:04:59;;;;;;;;;;;;;;;-17.00;43.57;96809.91;6268015;28;19921;-67
2024/01/25 02:08:00;;;;;;;;;;;;;;;-17.04;43.18;96808.94;6267904;28;19921;-68
2024/01/25 02:11:02;;;;;;;;;;;;;;;-17.11;43.39;96801.06;6268034;28;19928;-67
2024/01/25 02:14:02;;;;;;;;;;;;;;;-17.18;44.28;96806.63;6268359;28;19916;-67
2024/01/25 02:17:03;;;;;;;;;;;;;;;-17.24;44.17;96805.59;6265495;28;19920;-67
2024/01/25 02:20:05;;;;;;;;;;;;;;;-17.28;44.11;96803.75;6243452;28;19917;-67
2024/01/25 02:23:08;;;;;;;;;;;;;;;-17.30;44.28;96804.47;6243906;28;20333;-66
2024/01/25 02:26:09;;;;;;;;;;;;;;;-17.31;44.26;96792.72;6243227;28;19917;-67
2024/01/25 02:29:10;;;;;;;;;;;;;;;-17.33;44.25;96801.84;6242942;28;19979;-66
2024/01/25 02:32:11;;;;;;;;;;;;;;;-17.36;44.69;96802.56;6243134;28;19928;-67
2024/01/25 02:35:12;;;;;;;;;;;;;;;-17.36;45.11;96799.22;6243992;28;19925;-67
2024/01/25 02:38:15;;;;;;;;;;;;;;;-17.34;44.71;96798.47;6247924;28;19921;-66
2024/01/25 02:41:19;;;;;;;;;;;;;;;-17.34;44.21;96795.13;6248309;28;19921;-67
2024/01/25 02:44:25;;;;;;;;;;;;;;;-17.37;44.56;96798.34;6248187;28;19972;-67
2024/01/25 02:47:26;;;;;;;;;;;;;;;-17.35;44.03;96796.78;6247907;28;19929;-67
2024/01/25 02:50:28;;;;;;;;;;;;;;;-17.26;44.42;96797.16;6247237;28;19921;-69
2024/01/25 02:53:29;;;;;;;;;;;;;;;-17.23;43.97;96801.44;6247303;28;19921;-67
2024/01/25 02:56:35;;;;;;;;;;;;;;;-17.17;43.73;96796.66;6247971;28;19921;-68
2024/01/25 02:59:36;;;;;;;;;;;;;;;-16.92;43.97;96806.06;6247822;28;20452;-67
2024/01/25 03:02:38;;;;;;;;;;;;;;;-16.67;43.47;96797.78;6247640;28;19992;-66
2024/01/25 03:05:39;;;;;;;;;;;;;;;-16.46;42.98;96799.41;6247604;28;19921;-67
2024/01/25 03:08:39;;;;;;;;;;;;;;;-16.27;43.42;96795.88;6247465;28;19932;-67
2024/01/25 03:11:40;;;;;;;;;;;;;;;-16.08;42.80;96793.25;6247612;28;19920;-68
2024/01/25 03:14:41;;;;;;;;;;;;;;;-15.93;42.66;96792.97;6246799;28;19921;-68
2024/01/25 03:17:45;;;;;;;;;;;;;;;-15.83;42.72;96789.94;6247399;28;19920;-67
2024/01/25 03:20:47;;;;;;;;;;;;;;;-15.77;42.91;96787.63;6246888;28;20423;-67
2024/01/25 03:23:51;;;;;;;;;;;;;;;-15.64;42.89;96791.44;6246447;28;19921;-67
2024/01/25 03:26:52;;;;;;;;;;;;;;;-15.53;42.83;96787.63;6246629;28;19921;-66
2024/01/25 03:29:55;;;;;;;;;;;;;;;-15.39;43.13;96788.09;6246850;28;20477;-67
2024/01/25 03:32:56;;;;;;;;;;;;;;;-15.24;42.75;96788.59;6246353;28;20426;-67
2024/01/25 03:36:01;;;;;;;;;;;;;;;-15.14;42.87;96788.88;6246211;28;19924;-67
2024/01/25 03:39:02;;;;;;;;;;;;;;;-14.88;42.88;96784.72;6247239;28;19921;-67
2024/01/25 03:42:03;;;;;;;;;;;;;;;-14.69;42.20;96781.94;6247014;28;19921;-68
2024/01/25 03:45:07;;;;;;;;;;;;;;;-14.43;42.50;96786.88;6246192;28;20011;-66
2024/01/25 03:48:08;;;;;;;;;;;;;;;-14.25;42.28;96784.94;6245498;28;19931;-68
2024/01/25 03:51:11;;;;;;;;;;;;;;;-14.06;42.04;96788.88;6245873;28;20280;-67
2024/01/25 03:54:13;;;;;;;;;;;;;;;-13.98;41.80;96797.53;6245826;28;19939;-67
2024/01/25 03:57:14;;;;;;;;;;;;;;;-13.85;41.97;96793.66;6245884;28;20462;-67
2024/01/25 04:00:15;;;;;;;;;;;;;;;-13.73;41.90;96793.16;6245766;28;20000;-68
2024/01/25 04:03:18;;;;;;;;;;;;;;;-13.69;41.42;96788.22;6246080;28;19920;-68
2024/01/25 04:06:19;;;;;;;;;;;;;;;-13.61;41.35;96781.72;6245647;28;19921;-67
2024/01/25 04:09:23;;;;;;;;;;;;;;;-13.66;41.57;96783.25;6246228;28;19921;-67
2024/01/25 04:12:31;;;;;;;;;;;;;;;-13.72;41.43;96785.63;6246328;28;19921;-68
2024/01/25 04:15:32;;;;;;;;;;;;;;;-13.77;42.02;96786.31;6246341;28;19928;-67
2024/01/25 04:18:33;;;;;;;;;;;;;;;-13.87;42.30;96787.69;6259561;28;20340;-67
2024/01/25 04:21:37;;;;;;;;;;;;;;;-14.02;42.71;96780.53;6252790;28;19920;-68
2024/01/25 04:24:38;;;;;;;;;;;;;;;-14.15;42.71;96776.81;6270777;28;19921;-67
2024/01/25 04:27:39;;;;;;;;;;;;;;;-14.24;43.40;96779.06;6270455;28;19920;-68
2024/01/25 04:30:44;;;;;;;;;;;;;;;-14.27;43.54;96778.97;6270452;28;19967;-67
2024/01/25 04:33:45;;;;;;;;;;;;;;;-14.23;43.21;96760.56;6269889;28;20010;-68
2024/01/25 04:36:48;;;;;;;;;;;;;;;-14.14;43.07;96773.47;6270588;28;20341;-67
2024/01/25 04:39:49;;;;;;;;;;;;;;;-14.08;43.00;96766.06;6270218;28;20273;-68
2024/01/25 04:42:50;;;;;;;;;;;;;;;-13.92;42.47;96761.44;6269027;28;19917;-66
2024/01/25 04:45:51;;;;;;;;;;;;;;;-13.72;42.61;96765.38;6269275;28;20279;-67
2024/01/25 04:48:55;;;;;;;;;;;;;;;-13.47;41.93;96766.91;6269909;28;19920;-67
2024/01/25 04:51:56;;;;;;;;;;;;;;;-13.23;41.71;96766.63;6269531;28;20306;-67
2024/01/25 04:54:57;;;;;;;;;;;;;;;-13.03;41.39;96763.75;6269523;28;20063;-67
2024/01/25 04:57:58;;;;;;;;;;;;;;;-12.91;42.07;96780.13;6269251;28;19932;-67
2024/01/25 05:01:04;;;;;;;;;;;;;;;-12.82;41.46;96769.34;6269914;28;20035;-68
2024/01/25 05:04:07;;;;;;;;;;;;;;;-12.66;41.65;96771.41;6289254;28;20488;-69
2024/01/25 05:07:08;;;;;;;;;;;;;;;-12.48;41.09;96775.19;6293701;28;20018;-67
2024/01/25 05:10:17;;;;;;;;;;;;;;;-12.28;41.16;96768.03;6294469;28;19927;-67
2024/01/25 05:13:19;;;;;;;;;;;;;;;-12.10;40.82;96772.66;6294260;28;19927;-68
2024/01/25 05:16:24;;;;;;;;;;;;;;;-11.96;40.89;96776.34;6294218;28;19920;-68
2024/01/25 05:19:25;;;;;;;;;;;;;;;-11.86;40.73;96772.28;6272861;28;19999;-68
2024/01/25 05:22:26;;;;;;;;;;;;;;;-11.70;40.64;96771.75;6269186;28;20005;-67
2024/01/25 05:25:30;;;;;;;;;;;;;;;-11.51;40.44;96780.59;6269499;28;19921;-66
2024/01/25 05:28:31;;;;;;;;;;;;;;;-11.32;40.33;96775.03;6267577;28;19920;-67
2024/01/25 05:31:34;;;;;;;;;;;;;;;-11.11;40.11;96777.09;6268849;28;19927;-68
2024/01/25 05:34:36;;;;;;;;;;;;;;;-10.85;39.83;96779.22;6269393;28;20429;-68
2024/01/25 05:37:37;;;;;;;;;;;;;;;-10.60;39.66;96769.47;6269030;28;19928;-67
2024/01/25 05:40:37;;;;;;;;;;;;;;;-10.36;39.42;96779.16;6268877;28;19927;-67
2024/01/25 05:43:38;;;;;;;;;;;;;;;-10.15;39.08;96771.81;6268496;28;19920;-68
2024/01/25 05:46:42;;;;;;;;;;;;;;;-9.90;38.92;96764.53;6268818;28;19921;-69
2024/01/25 05:49:42;;;;;;;;;;;;;;;-9.60;38.60;96769.13;6268637;28;19943;-67
2024/01/25 05:52:46;;;;;;;;;;;;;;;-9.32;38.52;96765.19;6268746;28;20409;-67
2024/01/25 05:55:49;;;;;;;;;;;;;;;-9.11;38.05;96765.44;6268835;28;19916;-67
2024/01/25 05:58:50;;;;;;;;;;;;;;;-8.95;37.89;96765.56;6268304;28;20413;-67
2024/01/25 06:01:51;;;;;;;;;;;;;;;-8.84;37.77;96763.97;6264035;28;19921;-67
2024/01/25 06:04:52;;;;;;;;;;;;;;;-8.68;37.88;96765.81;6244128;28;20019;-69
2024/01/25 06:07:53;;;;;;;;;;;;;;;-8.53;37.63;96761.69;6243819;28;19921;-68
2024/01/25 06:10:57;;;;;;;;;;;;;;;-8.32;37.86;96763.50;6247476;28;20259;-68
2024/01/25 06:13:58;;;;;;;;;;;;;;;-8.15;37.64;96755.13;6248032;28;20026;-68
2024/01/25 06:16:59;;;;;;;;;;;;;;;-7.92;37.51;96760.38;6248486;28;19920;-68
2024/01/25 06:20:03;;;;;;;;;;;;;;;-7.75;37.98;96765.56;6248042;28;19974;-68
2024/01/25 06:23:06;;;;;;;;;;;;;;;-7.61;37.51;96770.75;6248850;28;20314;-68
2024/01/25 06:26:10;;;;;;;;;;;;;;;-7.53;37.79;96768.19;6231046;28;20382;-67
2024/01/25 06:29:11;;;;;;;;;;;;;;;-7.52;37.61;96770.78;6247674;28;19948;-67
2024/01/25 06:32:15;;;;;;;;;;;;;;;-7.60;38.20;96761.38;6248913;28;19920;-68
2024/01/25 06:35:16;;;;;;;;;;;;;;;-7.71;38.30;96764.72;6230634;28;20019;-67
2024/01/25 06:38:18;;;;;;;;;;;;;;;-7.79;38.69;96761.25;6248606;28;19921;-68
2024/01/25 06:41:19;;;;;;;;;;;;;;;-7.88;38.80;96756.13;6248327;28;19921;-67
2024/01/25 06:44:20;;;;;;;;;;;;;;;-7.94;38.95;96761.19;6248483;28;20416;-67
2024/01/25 06:47:21;;;;;;;;;;;;;;;-8.00;39.47;96750.97;6247591;28;19921;-68
2024/01/25 06:50:22;;;;;;;;;;;;;;;-8.00;39.22;96750.97;6248147;28;19947;-68
2024/01/25 06:53:23;;;;;;;;;;;;;;;-7.93;39.15;96750.13;6247499;28;19928;-68
2024/01/25 06:56:28;;;;;;;;;;;;;;;-7.31;39.65;96749.53;6248130;28;19921;-67
2024/01/25 06:59:29;;;;;;;;;;;;;;;-2.27;34.73;96752.19;6247480;28;20514;-68
2024/01/25 07:02:32;;;;;;;;;;;;;;;4.13;28.28;96762.44;6247362;28;19966;-68
2024/01/25 07:05:35;;;;;;;;;;;;;;;9.17;24.42;96759.47;6247760;28;19925;-68
2024/01/25 07:08:36;;;;;;;;;;;;;;;12.96;21.70;96763.38;6247661;28;19928;-68
2024/01/25 07:11:41;;;;;;;;;;;;;;;15.81;20.10;96754.31;6247624;28;20414;-68
2024/01/25 07:14:42;;;;;;;;;;;;;;;18.09;17.76;96743.00;6247744;28;19943;-66
2024/01/25 07:17:43;;;;;;;;;;;;;;;19.95;19.39;96741.09;6246939;28;19921;-68
2024/01/25 07:20:47;;;;;;;;;;;;;;;21.34;17.68;96738.59;6246660;28;20297;-68
2024/01/25 07:23:48;;;;;;;;;;;;;;;22.40;16.00;96735.59;6246344;28;19921;-67
2024/01/25 07:26:51;;;;;;;;;;;;;;;23.35;18.03;96733.50;6247389;28;19921;-67
2024/01/25 07:29:55;;;;;;;;;;;;;;;24.58;16.99;96725.69;6229485;28;20403;-67
2024/01/25 07:32:58;;;;;;;;;;;;;;;24.93;11.65;96717.72;6246974;28;19936;-68
2024/01/25 07:36:00;;;;;;;;;;;;;;;25.25;16.58;96716.38;6247233;28;19921;-68
2024/01/25 07:39:06;;;;;;;;;;;;;;;25.86;14.69;96714.91;6247203;28;19950;-68
2024/01/25 07:42:09;;;;;;;;;;;;;;;24.69;14.67;96715.44;6246672;28;19983;-68
2024/01/25 07:45:11;;;;;;;;;;;;;;;24.29;12.54;96704.19;6246673;28;19921;-68
2024/01/25 07:48:12;;;;;;;;;;;;;;;24.69;14.48;96707.38;6246474;28;20353;-66
2024/01/25 07:51:13;;;;;;;;;;;;;;;24.84;13.80;96698.19;6246817;28;19968;-67
2024/01/25 07:54:16;;;;;;;;;;;;;;;24.33;12.94;96692.88;6246057;28;19916;-68
2024/01/25 07:57:19;;;;;;;;;;;;;;;23.80;15.18;96691.44;6246652;28;19927;-67
2024/01/25 08:00:21;;;;;;;;;;;;;;;24.05;13.14;96692.78;6246192;28;19927;-66
2024/01/25 08:03:24;;;;;;;;;;;;;;;24.26;14.92;96693.84;6246210;28;20015;-68
2024/01/25 08:06:29;;;;;;;;;;;;;;;24.59;14.71;96700.44;6246475;28;20513;-67
2024/01/25 08:09:30;;;;;;;;;;;;;;;24.96;12.33;96695.78;6245680;28;19921;-68
2024/01/25 08:12:34;;;;;;;;;;;;;;;24.84;13.75;96695.50;6246457;28;19936;-67
2024/01/25 08:15:37;;;;;;;;;;;;;;;24.81;13.14;96697.75;6246154;28;19925;-68
2024/01/25 08:18:38;;;;;;;;;;;;;;;24.24;13.38;96690.53;6245029;28;20019;-68
2024/01/25 08:21:42;;;;;;;;;;;;;;;25.15;12.41;96694.34;6246031;28;20004;-67
2024/01/25 08:24:46;;;;;;;;;;;;;;;24.62;12.92;96689.28;6245741;28;19928;-68
2024/01/25 08:27:47;;;;;;;;;;;;;;;23.62;11.77;96687.25;6245174;28;19921;-68
2024/01/25 08:30:48;;;;;;;;;;;;;;;22.96;11.41;96675.53;6244868;28;19920;-67
2024/01/25 08:33:52;;;;;;;;;;;;;;;24.38;11.81;96681.56;6244379;28;20298;-66
2024/01/25 08:36:57;;;;;;;;;;;;;;;25.52;12.75;96679.66;6245154;28;19921;-68
2024/01/25 08:39:59;;;;;;;;;;;;;;;26.12;12.50;96679.16;6244585;28;20008;-67
2024/01/25 08:43:04;;;;;;;;;;;;;;;26.11;9.37;96672.09;6244881;28;20291;-68
2024/01/25 08:46:08;;;;;;;;;;;;;;;25.08;12.38;96661.94;6227496;28;20302;-67
2024/01/25 08:49:12;;;;;;;;;;;;;;;25.27;11.64;96667.69;6243653;28;20432;-68
2024/01/25 08:52:15;;;;;;;;;;;;;;;24.72;12.09;96661.25;6244962;28;19924;-68
2024/01/25 08:55:27;;;;;;;;;;;;;;;24.33;11.04;96666.00;6314906;27;2200415;-68
2024/01/25 08:58:28;;;;;;;;;;;;;;;24.06;11.34;96662.22;6391708;27;20013;-68
2024/01/25 09:01:33;;;;;;;;;;;;;;;24.39;11.07;96669.78;6391640;27;19923;-68
2024/01/25 09:04:42;;;;;;;;;;;;;;;25.44;11.73;96670.91;6391656;27;19927;-68
2024/01/25 09:07:43;;;;;;;;;;;;;;;26.48;11.41;96669.91;6391532;27;20415;-68
2024/01/25 09:10:45;;;;;;;;;;;;;;;26.33;10.21;96670.94;6391398;27;19923;-68
2024/01/25 09:13:49;;;;;;;;;;;;;;;25.20;11.09;96666.84;6391118;27;19923;-69
2024/01/25 09:16:53;;;;;;;;;;;;;;;25.16;11.58;96665.53;6373192;27;19924;-69
2024/01/25 09:19:58;;;;;;;;;;;;;;;24.81;10.42;96668.16;6391284;27;19919;-68
2024/01/25 09:23:02;;;;;;;;;;;;;;;23.69;11.69;96666.69;6391418;27;19930;-68
2024/01/25 09:26:03;;;;;;;;;;;;;;;21.59;11.19;96672.47;6390907;27;19926;-67
2024/01/25 09:29:04;;;;;;;;;;;;;;;20.15;11.34;96659.69;6390939;27;19934;-68
2024/01/25 09:32:06;;;;;;;;;;;;;;;19.23;11.58;96672.03;6391336;27;19923;-68
2024/01/25 09:35:09;;;;;;;;;;;;;;;19.07;10.97;96659.44;6391167;27;19923;-69
2024/01/25 09:38:13;;;;;;;;;;;;;;;18.76;11.16;96659.06;6372413;27;19924;-68
2024/01/25 09:41:18;;;;;;;;;;;;;;;19.36;11.24;96660.06;6391051;27;19927;-68
2024/01/25 09:44:19;;;;;;;;;;;;;;;19.58;10.57;96666.69;6390788;27;20312;-70
2024/01/25 09:47:23;;;;;;;;;;;;;;;17.62;11.59;96663.25;6350492;28;20014;-68
2024/01/25 09:50:24;;;;;;;;;;;;;;;15.79;12.46;96644.81;6364995;28;20332;-69
2024/01/25 09:53:32;;;;;;;;;;;;;;;15.27;12.42;96645.78;6364788;28;20061;-68
2024/01/25 09:56:35;;;;;;;;;;;;;;;13.77;13.55;96637.25;6365003;28;20004;-66
2024/01/25 09:59:36;;;;;;;;;;;;;;;10.28;14.92;96635.91;6365033;28;19924;-68
2024/01/25 10:02:40;;;;;;;;;;;;;;;6.96;17.40;96631.53;6364687;28;19951;-70
2024/01/25 10:05:46;;;;;;;;;;;;;;;7.97;17.00;96635.44;6354313;28;20065;-68
2024/01/25 10:08:49;;;;;;;;;;;;;;;10.71;15.31;96630.31;6347804;28;19923;-68
2024/01/25 10:11:50;;;;;;;;;;;;;;;12.27;14.08;96622.63;6347568;28;19931;-69
2024/01/25 10:14:52;;;;;;;;;;;;;;;11.32;14.32;96624.31;6328746;28;19943;-69
2024/01/25 10:17:55;;;;;;;;;;;;;;;10.36;15.12;96624.88;6347374;28;19924;-68
2024/01/25 10:20:56;;;;;;;;;;;;;;;7.79;16.72;96620.81;6347412;28;19937;-68
2024/01/25 10:23:58;;;;;;;;;;;;;;;5.21;18.10;96617.78;6328927;28;20274;-69
2024/01/25 10:27:03;;;;;;;;;;;;;;;3.33;19.74;96618.19;6329415;28;19928;-69
2024/01/25 10:30:07;;;;;;;;;;;;;;;2.25;20.76;96629.22;6347200;28;20261;-69
2024/01/25 10:33:09;;;;;;;;;;;;;;;1.50;21.03;96630.94;6347107;28;20022;-68
2024/01/25 10:36:13;;;;;;;;;;;;;;;1.28;21.93;96634.22;6347098;28;19924;-69
2024/01/25 10:39:18;;;;;;;;;;;;;;;0.34;23.37;96627.56;6329332;28;19945;-68
2024/01/25 10:42:21;;;;;;;;;;;;;;;-0.12;22.98;96624.50;6346919;28;19924;-68
2024/01/25 10:45:27;;;;;;;;;;;;;;;-0.35;23.45;96630.28;6346980;28;19923;-68
2024/01/25 10:48:33;;;;;;;;;;;;;;;-0.76;24.03;96629.59;6346666;28;19924;-68
2024/01/25 10:51:36;;;;;;;;;;;;;;;-1.36;24.91;96625.78;6346789;28;19924;-68
2024/01/25 10:54:38;;;;;;;;;;;;;;;-1.61;24.98;96624.63;6319379;28;19931;-69
2024/01/25 10:57:43;;;;;;;;;;;;;;;-1.65;24.83;96628.13;6320208;28;20195;-68
2024/01/25 11:00:58;;;;;;;;;;;;;;;-1.90;26.01;96631.19;6321202;28;19927;-69
2024/01/25 11:04:01;;;;;;;;;;;;;;;-2.13;26.12;96625.63;6321299;28;19924;-68
2024/01/25 11:07:11;;;;;;;;;;;;;;;-2.36;25.03;96629.50;6321443;28;20389;-68
2024/01/25 11:10:16;;;;;;;;;;;;;;;-2.53;26.18;96626.38;6321251;28;19930;-69
2024/01/25 11:13:26;;;;;;;;;;;;;;;-2.58;25.49;96629.00;6320936;28;19923;-70
2024/01/25 11:16:29;;;;;;;;;;;;;;;-2.68;25.67;96636.94;6319809;28;19924;-68
2024/01/25 11:19:34;;;;;;;;;;;;;;;-2.65;25.66;96631.72;6320690;28;19923;-68
2024/01/25 11:22:38;;;;;;;;;;;;;;;-2.68;25.60;96630.06;6320786;28;19924;-69
2024/01/25 11:25:45;;;;;;;;;;;;;;;-2.91;25.54;96638.16;6320422;28;19947;-69
2024/01/25 11:28:51;;;;;;;;;;;;;;;-3.10;26.73;96639.31;6320852;28;20024;-69
2024/01/25 11:31:56;;;;;;;;;;;;;;;-3.27;26.13;96642.97;6320533;28;19920;-69
2024/01/25 11:35:00;;;;;;;;;;;;;;;-3.32;25.76;96647.31;6320379;28;20393;-69
2024/01/25 11:38:01;;;;;;;;;;;;;;;-3.55;26.31;96641.66;6320265;28;19924;-70
2024/01/25 11:41:04;;;;;;;;;;;;;;;-3.53;26.63;96650.19;6320260;28;19920;-69
2024/01/25 11:44:09;;;;;;;;;;;;;;;-3.80;27.36;96652.22;6320136;28;19924;-69
2024/01/25 11:47:10;;;;;;;;;;;;;;;-3.97;27.85;96641.28;6320117;28;19931;-69
2024/01/25 11:50:12;;;;;;;;;;;;;;;-4.24;28.36;96645.88;6319967;28;19921;-69
2024/01/25 11:53:13;;;;;;;;;;;;;;;-4.35;28.79;96657.97;6324129;28;19923;-67
2024/01/25 11:56:19;;;;;;;;;;;;;;;-4.61;28.84;96651.38;6309404;28;20026;-68
2024/01/25 11:59:23;;;;;;;;;;;;;;;-4.89;29.24;96649.91;6344940;28;19920;-68
2024/01/25 12:02:24;;;;;;;;;;;;;;;-5.26;29.72;96655.28;6345182;28;20022;-69
2024/01/25 12:05:28;;;;;;;;;;;;;;;-5.27;29.97;96656.13;6344823;28;19945;-67
2024/01/25 12:08:32;;;;;;;;;;;;;;;-5.48;30.09;96655.41;6344711;28;19973;-68
2024/01/25 12:11:34;;;;;;;;;;;;;;;-5.89;29.71;96650.47;6344563;28;19927;-69
2024/01/25 12:14:37;;;;;;;;;;;;;;;-6.11;30.01;96658.28;6344730;28;20018;-70
2024/01/25 12:17:40;;;;;;;;;;;;;;;-6.37;30.05;96655.78;6344003;28;20345;-68
2024/01/25 12:20:43;;;;;;;;;;;;;;;-6.48;29.58;96647.28;6344419;28;20050;-68
2024/01/25 12:23:49;;;;;;;;;;;;;;;-6.62;29.74;96651.56;6344422;28;19976;-69
2024/01/25 12:26:54;;;;;;;;;;;;;;;-6.86;29.78;96666.06;6344377;28;20434;-69
2024/01/25 12:29:57;;;;;;;;;;;;;;;-6.80;29.73;96660.94;6344075;28;19923;-69
2024/01/25 12:32:58;;;;;;;;;;;;;;;-6.96;29.96;96669.50;6344312;28;19930;-69
2024/01/25 12:35:59;;;;;;;;;;;;;;;-6.97;30.38;96662.66;6344178;28;19924;-69
2024/01/25 12:39:00;;;;;;;;;;;;;;;-6.98;29.91;96668.63;6343460;28;20393;-69
2024/01/25 12:42:03;;;;;;;;;;;;;;;-7.20;30.02;96661.78;6344374;28;20309;-69
2024/01/25 12:45:07;;;;;;;;;;;;;;;-7.37;30.23;96670.28;6326191;28;20010;-69
2024/01/25 12:48:08;;;;;;;;;;;;;;;-7.64;30.63;96667.66;6343885;28;20023;-68
2024/01/25 12:51:12;;;;;;;;;;;;;;;-7.61;30.87;96667.66;6343880;28;19924;-69
2024/01/25 12:54:15;;;;;;;;;;;;;;;-7.63;30.71;96679.59;6343829;28;19927;-69
2024/01/25 12:57:16;;;;;;;;;;;;;;;-7.83;30.32;96677.81;6343940;28;19924;-69
2024/01/25 13:00:18;;;;;;;;;;;;;;;-7.84;31.10;96683.78;6325235;28;19969;-68
2024/01/25 13:03:21;;;;;;;;;;;;;;;-7.78;31.17;96696.59;6343922;28;20022;-69
2024/01/25 13:06:26;;;;;;;;;;;;;;;-7.96;31.15;96696.50;6343714;28;20377;-70
2024/01/25 13:09:33;;;;;;;;;;;;;;;-7.80;31.52;96693.16;6343851;28;19924;-69
2024/01/25 13:12:37;;;;;;;;;;;;;;;-7.93;31.71;96694.78;6343601;28;19923;-68
2024/01/25 13:15:43;;;;;;;;;;;;;;;-8.04;31.66;96700.69;6343912;28;20316;-69
2024/01/25 13:18:46;;;;;;;;;;;;;;;-8.14;31.29;96698.09;6327599;28;20395;-69
2024/01/25 13:21:50;;;;;;;;;;;;;;;-8.06;31.95;96699.88;6318303;28;20022;-68
2024/01/25 13:24:52;;;;;;;;;;;;;;;-8.16;32.12;96699.78;6318560;28;19923;-68
2024/01/25 13:27:54;;;;;;;;;;;;;;;-8.34;31.86;96704.81;6318416;28;20030;-70
2024/01/25 13:30:56;;;;;;;;;;;;;;;-8.28;32.13;96699.72;6318305;28;19931;-70
2024/01/25 13:33:58;;;;;;;;;;;;;;;-8.11;32.69;96707.50;6300242;28;19931;-69
2024/01/25 13:37:02;;;;;;;;;;;;;;;-7.92;32.66;96698.22;6317892;28;20388;-69
2024/01/25 13:40:04;;;;;;;;;;;;;;;-8.02;32.56;96697.31;6301167;28;20400;-69
2024/01/25 13:43:07;;;;;;;;;;;;;;;-7.94;32.41;96705.03;6322942;28;19946;-69
2024/01/25 13:46:11;;;;;;;;;;;;;;;-7.83;31.84;96707.63;6322926;28;19924;-69
2024/01/25 13:49:15;;;;;;;;;;;;;;;-7.71;32.11;96703.41;6322587;28;19930;-69
2024/01/25 13:52:19;;;;;;;;;;;;;;;-7.70;32.62;96700.03;6322919;28;20395;-69
2024/01/25 13:55:22;;;;;;;;;;;;;;;-7.61;31.81;96703.44;6322216;28;19924;-68
2024/01/25 13:58:23;;;;;;;;;;;;;;;-7.38;32.12;96706.94;6322855;28;19924;-68
2024/01/25 14:01:27;;;;;;;;;;;;;;;-7.25;32.34;96708.63;6322388;28;20415;-68
2024/01/25 14:04:30;;;;;;;;;;;;;;;-7.31;32.65;96708.63;6303952;28;19924;-68
2024/01/25 14:07:31;;;;;;;;;;;;;;;-7.23;33.33;96701.84;6322385;28;20254;-68
2024/01/25 14:10:37;;;;;;;;;;;;;;;-7.24;33.56;96700.13;6322262;28;19970;-68
2024/01/25 14:13:42;;;;;;;;;;;;;;;-7.06;33.51;96708.69;6321260;28;20356;-68
2024/01/25 14:16:45;;;;;;;;;;;;;;;-7.17;33.26;96705.25;6321119;28;20445;-68
2024/01/25 14:19:48;;;;;;;;;;;;;;;-7.15;32.93;96711.25;6347074;28;20412;-69
2024/01/25 14:22:51;;;;;;;;;;;;;;;-7.15;33.18;96719.75;6347242;28;19943;-67
2024/01/25 14:25:54;;;;;;;;;;;;;;;-6.98;33.19;96707.00;6346257;28;20407;-69
2024/01/25 14:28:58;;;;;;;;;;;;;;;-6.99;33.14;96715.53;6347362;28;20071;-69
2024/01/25 14:32:02;;;;;;;;;;;;;;;-6.79;33.63;96718.94;6347600;28;19924;-70
2024/01/25 14:35:03;;;;;;;;;;;;;;;-6.78;33.26;96715.53;6346394;28;19931;-68
2024/01/25 14:38:07;;;;;;;;;;;;;;;-6.93;33.71;96719.81;6347220;28;20004;-68
2024/01/25 14:41:12;;;;;;;;;;;;;;;-7.06;33.56;96708.69;6346930;28;20368;-69
2024/01/25 14:44:16;;;;;;;;;;;;;;;-7.27;33.42;96715.47;6346942;28;19927;-68
2024/01/25 14:47:21;;;;;;;;;;;;;;;-7.30;33.35;96724.84;6347077;28;19923;-68
2024/01/25 14:50:27;;;;;;;;;;;;;;;-7.41;33.04;96718.84;6346896;28;19921;-69
2024/01/25 14:53:31;;;;;;;;;;;;;;;-7.48;33.46;96726.47;6327892;28;19924;-68
2024/01/25 14:56:56;;;;;;;;;;;;;;;-7.50;32.96;96717.09;6346777;28;19932;-69
2024/01/25 14:59:57;;;;;;;;;;;;;;;-7.39;32.59;96730.75;6345444;28;20313;-69
2024/01/25 15:03:01;;;;;;;;;;;;;;;-7.29;32.78;96717.16;6346599;28;19923;-70
2024/01/25 15:06:05;;;;;;;;;;;;;;;-7.09;32.34;96724.88;6346393;28;20024;-69
2024/01/25 15:09:07;;;;;;;;;;;;;;;-7.18;32.40;96724.03;6346594;28;19923;-68
2024/01/25 15:12:12;;;;;;;;;;;;;;;-7.15;32.81;96724.88;6346197;28;20507;-69
2024/01/25 15:15:13;;;;;;;;;;;;;;;-6.96;33.63;96733.44;6345548;28;20033;-69
2024/01/25 15:18:14;;;;;;;;;;;;;;;-7.03;34.45;96729.16;6344939;28;20428;-69
2024/01/25 15:21:18;;;;;;;;;;;;;;;-7.12;34.90;96731.69;6345807;28;19924;-68
2024/01/25 15:24:19;;;;;;;;;;;;;;;-7.20;34.60;96731.69;6345854;28;20594;-69
2024/01/25 15:27:23;;;;;;;;;;;;;;;-7.18;35.32;96731.69;6346134;28;19924;-69
2024/01/25 15:30:29;;;;;;;;;;;;;;;-6.93;35.68;96730.03;6345640;28;20056;-70
2024/01/25 15:33:35;;;;;;;;;;;;;;;-7.08;35.55;96730.84;6345889;28;20265;-69
2024/01/25 15:36:43;;;;;;;;;;;;;;;-6.94;36.18;96738.53;6345927;28;19923;-68
2024/01/25 15:39:51;;;;;;;;;;;;;;;-6.89;36.51;96732.56;6345499;28;19923;-70
2024/01/25 15:42:55;;;;;;;;;;;;;;;-7.03;36.52;96734.25;6345552;28;20349;-69
2024/01/25 15:45:57;;;;;;;;;;;;;;;-7.12;36.54;96739.38;6344856;28;19931;-69